METAR Data
IDs: Format: Raw Decoded Include TAF

Data at: 1324 UTC 19 Feb 2020

METAR for:KHLB (Batesville Arpt, IN, US)
Text:KHLB 191315Z AUTO 33004KT 10SM CLR M03/M04 A3049 RMK A01
Temperature: -3.0°C ( 27°F)
Dewpoint: -4.0°C ( 25°F) [RH = 93%]
Pressure (altimeter):30.49 inches Hg (1032.6 mb)
Winds:from the NNW (330 degrees) at 5 MPH (4 knots; 2.1 m/s)
Visibility:10 or more sm (16+ km)
Ceiling:at least 12,000 feet AGL
Clouds:sky clear below 12,000 feet AGL
QC Flag:automated observation with no human augmentation
Text:KHLB 191255Z AUTO 00000KT 9SM CLR M04/M04 A3048 RMK A01
Temperature: -4.0°C ( 25°F)
Dewpoint: -4.0°C ( 25°F) [RH = 100%]
Pressure (altimeter):30.48 inches Hg (1032.3 mb)
Winds:calm
Visibility: 9 sm ( 14 km)
Ceiling:at least 12,000 feet AGL
Clouds:sky clear below 12,000 feet AGL
QC Flag:automated observation with no human augmentation
Text:KHLB 191235Z AUTO 00000KT 9SM CLR M04/M04 A3047 RMK A01
Temperature: -4.0°C ( 25°F)
Dewpoint: -4.0°C ( 25°F) [RH = 100%]
Pressure (altimeter):30.47 inches Hg (1031.9 mb)
Winds:calm
Visibility: 9 sm ( 14 km)
Ceiling:at least 12,000 feet AGL
Clouds:sky clear below 12,000 feet AGL
QC Flag:automated observation with no human augmentation
Text:KHLB 191215Z AUTO 00000KT 10SM CLR M04/M04 A3046 RMK A01
Temperature: -4.0°C ( 25°F)
Dewpoint: -4.0°C ( 25°F) [RH = 100%]
Pressure (altimeter):30.46 inches Hg (1031.6 mb)
Winds:calm
Visibility:10 or more sm (16+ km)
Ceiling:at least 12,000 feet AGL
Clouds:sky clear below 12,000 feet AGL
QC Flag:automated observation with no human augmentation
Text:KHLB 191155Z AUTO VRB03KT 10SM CLR M04/M04 A3045 RMK A01
Temperature: -4.0°C ( 25°F)
Dewpoint: -4.0°C ( 25°F) [RH = 100%]
Pressure (altimeter):30.45 inches Hg (1031.2 mb)
Winds:variable direction winds at 3 MPH (3 knots; 1.5 m/s)
Visibility:10 or more sm (16+ km)
Ceiling:at least 12,000 feet AGL
Clouds:sky clear below 12,000 feet AGL
QC Flag:automated observation with no human augmentation
Text:KHLB 191135Z AUTO 33004KT 10SM CLR M04/M04 A3045 RMK A01
Temperature: -4.0°C ( 25°F)
Dewpoint: -4.0°C ( 25°F) [RH = 100%]
Pressure (altimeter):30.45 inches Hg (1031.2 mb)
Winds:from the NNW (330 degrees) at 5 MPH (4 knots; 2.1 m/s)
Visibility:10 or more sm (16+ km)
Ceiling:at least 12,000 feet AGL
Clouds:sky clear below 12,000 feet AGL
QC Flag:automated observation with no human augmentation
Text:KHLB 191115Z AUTO 00000KT 10SM CLR M04/M04 A3044 RMK A01
Temperature: -4.0°C ( 25°F)
Dewpoint: -4.0°C ( 25°F) [RH = 100%]
Pressure (altimeter):30.44 inches Hg (1030.9 mb)
Winds:calm
Visibility:10 or more sm (16+ km)
Ceiling:at least 12,000 feet AGL
Clouds:sky clear below 12,000 feet AGL
QC Flag:automated observation with no human augmentation
Text:KHLB 191055Z AUTO 00000KT 10SM CLR M03/M04 A3043 RMK A01
Temperature: -3.0°C ( 27°F)
Dewpoint: -4.0°C ( 25°F) [RH = 93%]
Pressure (altimeter):30.43 inches Hg (1030.6 mb)
Winds:calm
Visibility:10 or more sm (16+ km)
Ceiling:at least 12,000 feet AGL
Clouds:sky clear below 12,000 feet AGL
QC Flag:automated observation with no human augmentation
Text:KHLB 191035Z AUTO 00000KT 10SM CLR M04/M04 A3042 RMK A01
Temperature: -4.0°C ( 25°F)
Dewpoint: -4.0°C ( 25°F) [RH = 100%]
Pressure (altimeter):30.42 inches Hg (1030.2 mb)
Winds:calm
Visibility:10 or more sm (16+ km)
Ceiling:at least 12,000 feet AGL
Clouds:sky clear below 12,000 feet AGL
QC Flag:automated observation with no human augmentation
Text:KHLB 191015Z AUTO 00000KT 8SM CLR M04/M04 A3041 RMK A01
Temperature: -4.0°C ( 25°F)
Dewpoint: -4.0°C ( 25°F) [RH = 100%]
Pressure (altimeter):30.41 inches Hg (1029.9 mb)
Winds:calm
Visibility: 8 sm ( 13 km)
Ceiling:at least 12,000 feet AGL
Clouds:sky clear below 12,000 feet AGL
QC Flag:automated observation with no human augmentation
Text:KHLB 190955Z AUTO 00000KT 7SM CLR M04/M04 A3040 RMK A01
Temperature: -4.0°C ( 25°F)
Dewpoint: -4.0°C ( 25°F) [RH = 100%]
Pressure (altimeter):30.40 inches Hg (1029.5 mb)
Winds:calm
Visibility: 7 sm ( 11 km)
Ceiling:at least 12,000 feet AGL
Clouds:sky clear below 12,000 feet AGL
QC Flag:automated observation with no human augmentation
Text:KHLB 190935Z AUTO 00000KT 7SM CLR M03/M03 A3039 RMK A01
Temperature: -3.0°C ( 27°F)
Dewpoint: -3.0°C ( 27°F) [RH = 100%]
Pressure (altimeter):30.39 inches Hg (1029.2 mb)
Winds:calm
Visibility: 7 sm ( 11 km)
Ceiling:at least 12,000 feet AGL
Clouds:sky clear below 12,000 feet AGL
QC Flag:automated observation with no human augmentation
Text:KHLB 190915Z AUTO 32004KT 6SM BR CLR M04/M04 A3039 RMK A01
Temperature: -4.0°C ( 25°F)
Dewpoint: -4.0°C ( 25°F) [RH = 100%]
Pressure (altimeter):30.39 inches Hg (1029.2 mb)
Winds:from the NW (320 degrees) at 5 MPH (4 knots; 2.1 m/s)
Visibility: 6 sm ( 10 km)
Ceiling:at least 12,000 feet AGL
Clouds:sky clear below 12,000 feet AGL
Weather:BR (mist)
QC Flag:automated observation with no human augmentation
Text:KHLB 190855Z AUTO 32003KT 6SM BR CLR M04/M04 A3038 RMK A01
Temperature: -4.0°C ( 25°F)
Dewpoint: -4.0°C ( 25°F) [RH = 100%]
Pressure (altimeter):30.38 inches Hg (1028.9 mb)
Winds:from the NW (320 degrees) at 3 MPH (3 knots; 1.5 m/s)
Visibility: 6 sm ( 10 km)
Ceiling:at least 12,000 feet AGL
Clouds:sky clear below 12,000 feet AGL
Weather:BR (mist)
QC Flag:automated observation with no human augmentation
Text:KHLB 190835Z AUTO 00000KT 7SM CLR M03/M03 A3038 RMK A01
Temperature: -3.0°C ( 27°F)
Dewpoint: -3.0°C ( 27°F) [RH = 100%]
Pressure (altimeter):30.38 inches Hg (1028.9 mb)
Winds:calm
Visibility: 7 sm ( 11 km)
Ceiling:at least 12,000 feet AGL
Clouds:sky clear below 12,000 feet AGL
QC Flag:automated observation with no human augmentation
Text:KHLB 190815Z AUTO 00000KT 7SM CLR M03/M03 A3038 RMK A01
Temperature: -3.0°C ( 27°F)
Dewpoint: -3.0°C ( 27°F) [RH = 100%]
Pressure (altimeter):30.38 inches Hg (1028.9 mb)
Winds:calm
Visibility: 7 sm ( 11 km)
Ceiling:at least 12,000 feet AGL
Clouds:sky clear below 12,000 feet AGL
QC Flag:automated observation with no human augmentation
Text:KHLB 190755Z AUTO 00000KT 8SM CLR M03/M03 A3038 RMK A01
Temperature: -3.0°C ( 27°F)
Dewpoint: -3.0°C ( 27°F) [RH = 100%]
Pressure (altimeter):30.38 inches Hg (1028.9 mb)
Winds:calm
Visibility: 8 sm ( 13 km)
Ceiling:at least 12,000 feet AGL
Clouds:sky clear below 12,000 feet AGL
QC Flag:automated observation with no human augmentation
Text:KHLB 190735Z AUTO 00000KT 8SM CLR M03/M03 A3038 RMK A01
Temperature: -3.0°C ( 27°F)
Dewpoint: -3.0°C ( 27°F) [RH = 100%]
Pressure (altimeter):30.38 inches Hg (1028.9 mb)
Winds:calm
Visibility: 8 sm ( 13 km)
Ceiling:at least 12,000 feet AGL
Clouds:sky clear below 12,000 feet AGL
QC Flag:automated observation with no human augmentation
Text:KHLB 190715Z AUTO 00000KT 10SM CLR M02/M02 A3037 RMK A01
Temperature: -2.0°C ( 28°F)
Dewpoint: -2.0°C ( 28°F) [RH = 100%]
Pressure (altimeter):30.37 inches Hg (1028.5 mb)
Winds:calm
Visibility:10 or more sm (16+ km)
Ceiling:at least 12,000 feet AGL
Clouds:sky clear below 12,000 feet AGL
QC Flag:automated observation with no human augmentation
Text:KHLB 190655Z AUTO VRB04KT 10SM CLR M02/M02 A3037 RMK A01
Temperature: -2.0°C ( 28°F)
Dewpoint: -2.0°C ( 28°F) [RH = 100%]
Pressure (altimeter):30.37 inches Hg (1028.5 mb)
Winds:variable direction winds at 5 MPH (4 knots; 2.1 m/s)
Visibility:10 or more sm (16+ km)
Ceiling:at least 12,000 feet AGL
Clouds:sky clear below 12,000 feet AGL
QC Flag:automated observation with no human augmentation
Text:KHLB 190635Z AUTO VRB03KT 10SM CLR M02/M02 A3037 RMK A01
Temperature: -2.0°C ( 28°F)
Dewpoint: -2.0°C ( 28°F) [RH = 100%]
Pressure (altimeter):30.37 inches Hg (1028.5 mb)
Winds:variable direction winds at 3 MPH (3 knots; 1.5 m/s)
Visibility:10 or more sm (16+ km)
Ceiling:at least 12,000 feet AGL
Clouds:sky clear below 12,000 feet AGL
QC Flag:automated observation with no human augmentation
Text:KHLB 190615Z AUTO VRB04KT 10SM CLR M02/M02 A3036 RMK A01
Temperature: -2.0°C ( 28°F)
Dewpoint: -2.0°C ( 28°F) [RH = 100%]
Pressure (altimeter):30.36 inches Hg (1028.2 mb)
Winds:variable direction winds at 5 MPH (4 knots; 2.1 m/s)
Visibility:10 or more sm (16+ km)
Ceiling:at least 12,000 feet AGL
Clouds:sky clear below 12,000 feet AGL
QC Flag:automated observation with no human augmentation
Text:KHLB 190555Z AUTO 33004KT 10SM CLR M02/M02 A3035 RMK A01
Temperature: -2.0°C ( 28°F)
Dewpoint: -2.0°C ( 28°F) [RH = 100%]
Pressure (altimeter):30.35 inches Hg (1027.9 mb)
Winds:from the NNW (330 degrees) at 5 MPH (4 knots; 2.1 m/s)
Visibility:10 or more sm (16+ km)
Ceiling:at least 12,000 feet AGL
Clouds:sky clear below 12,000 feet AGL
QC Flag:automated observation with no human augmentation
Text:KHLB 190535Z AUTO 32004KT 10SM CLR M02/M02 A3035 RMK A01
Temperature: -2.0°C ( 28°F)
Dewpoint: -2.0°C ( 28°F) [RH = 100%]
Pressure (altimeter):30.35 inches Hg (1027.9 mb)
Winds:from the NW (320 degrees) at 5 MPH (4 knots; 2.1 m/s)
Visibility:10 or more sm (16+ km)
Ceiling:at least 12,000 feet AGL
Clouds:sky clear below 12,000 feet AGL
QC Flag:automated observation with no human augmentation
Text:KHLB 190515Z AUTO VRB03KT 10SM CLR M01/M01 A3034 RMK A01
Temperature: -1.0°C ( 30°F)
Dewpoint: -1.0°C ( 30°F) [RH = 100%]
Pressure (altimeter):30.34 inches Hg (1027.5 mb)
Winds:variable direction winds at 3 MPH (3 knots; 1.5 m/s)
Visibility:10 or more sm (16+ km)
Ceiling:at least 12,000 feet AGL
Clouds:sky clear below 12,000 feet AGL
QC Flag:automated observation with no human augmentation
Text:KHLB 190455Z AUTO VRB03KT 10SM CLR M01/M01 A3033 RMK A01
Temperature: -1.0°C ( 30°F)
Dewpoint: -1.0°C ( 30°F) [RH = 100%]
Pressure (altimeter):30.33 inches Hg (1027.2 mb)
Winds:variable direction winds at 3 MPH (3 knots; 1.5 m/s)
Visibility:10 or more sm (16+ km)
Ceiling:at least 12,000 feet AGL
Clouds:sky clear below 12,000 feet AGL
QC Flag:automated observation with no human augmentation
Text:KHLB 190435Z AUTO 33004G10KT 10SM FEW023 M01/M01 A3033 RMK A01
Temperature: -1.0°C ( 30°F)
Dewpoint: -1.0°C ( 30°F) [RH = 100%]
Pressure (altimeter):30.33 inches Hg (1027.2 mb)
Winds:from the NNW (330 degrees) at 5 MPH (4 knots; 2.1 m/s) gusting to 12 MPH (10 knots; 5.1 m/s)
Visibility:10 or more sm (16+ km)
Ceiling:at least 12,000 feet AGL
Clouds: few clouds at 2300 feet AGL
QC Flag:automated observation with no human augmentation
Text:KHLB 190415Z AUTO 32005KT 10SM FEW024 M01/M01 A3032 RMK A01
Temperature: -1.0°C ( 30°F)
Dewpoint: -1.0°C ( 30°F) [RH = 100%]
Pressure (altimeter):30.32 inches Hg (1026.8 mb)
Winds:from the NW (320 degrees) at 6 MPH (5 knots; 2.6 m/s)
Visibility:10 or more sm (16+ km)
Ceiling:at least 12,000 feet AGL
Clouds: few clouds at 2400 feet AGL
QC Flag:automated observation with no human augmentation
Text:KHLB 190355Z AUTO VRB03KT 10SM CLR M01/M01 A3032 RMK A01
Temperature: -1.0°C ( 30°F)
Dewpoint: -1.0°C ( 30°F) [RH = 100%]
Pressure (altimeter):30.32 inches Hg (1026.8 mb)
Winds:variable direction winds at 3 MPH (3 knots; 1.5 m/s)
Visibility:10 or more sm (16+ km)
Ceiling:at least 12,000 feet AGL
Clouds:sky clear below 12,000 feet AGL
QC Flag:automated observation with no human augmentation
Text:KHLB 190335Z AUTO 33004G10KT 10SM CLR M01/M01 A3031 RMK A01
Temperature: -1.0°C ( 30°F)
Dewpoint: -1.0°C ( 30°F) [RH = 100%]
Pressure (altimeter):30.31 inches Hg (1026.5 mb)
Winds:from the NNW (330 degrees) at 5 MPH (4 knots; 2.1 m/s) gusting to 12 MPH (10 knots; 5.1 m/s)
Visibility:10 or more sm (16+ km)
Ceiling:at least 12,000 feet AGL
Clouds:sky clear below 12,000 feet AGL
QC Flag:automated observation with no human augmentation
Text:KHLB 190315Z AUTO VRB05KT 10SM FEW025 M00/M00 A3030 RMK A01
Temperature: 0.0°C ( 32°F)
Dewpoint: 0.0°C ( 32°F) [RH = 100%]
Pressure (altimeter):30.30 inches Hg (1026.2 mb)
Winds:variable direction winds at 6 MPH (5 knots; 2.6 m/s)
Visibility:10 or more sm (16+ km)
Ceiling:at least 12,000 feet AGL
Clouds: few clouds at 2500 feet AGL
QC Flag:automated observation with no human augmentation
Text:KHLB 190255Z AUTO 31003KT 10SM FEW024 M00/M00 A3030 RMK A01
Temperature: 0.0°C ( 32°F)
Dewpoint: 0.0°C ( 32°F) [RH = 100%]
Pressure (altimeter):30.30 inches Hg (1026.2 mb)
Winds:from the NW (310 degrees) at 3 MPH (3 knots; 1.5 m/s)
Visibility:10 or more sm (16+ km)
Ceiling:at least 12,000 feet AGL
Clouds: few clouds at 2400 feet AGL
QC Flag:automated observation with no human augmentation
Text:KHLB 190235Z AUTO 32006KT 10SM SCT023 00/M00 A3029 RMK A01
Temperature: 0.0°C ( 32°F)
Dewpoint: 0.0°C ( 32°F) [RH = 100%]
Pressure (altimeter):30.29 inches Hg (1025.8 mb)
Winds:from the NW (320 degrees) at 7 MPH (6 knots; 3.1 m/s)
Visibility:10 or more sm (16+ km)
Ceiling:at least 12,000 feet AGL
Clouds: scattered clouds at 2300 feet AGL
QC Flag:automated observation with no human augmentation
Text:KHLB 190215Z AUTO 32006G12KT 10SM BKN021 BKN027 01/M00 A3029 RMK A01
Temperature: 1.0°C ( 34°F)
Dewpoint: 0.0°C ( 32°F) [RH = 93%]
Pressure (altimeter):30.29 inches Hg (1025.8 mb)
Winds:from the NW (320 degrees) at 7 MPH (6 knots; 3.1 m/s) gusting to 14 MPH (12 knots; 6.2 m/s)
Visibility:10 or more sm (16+ km)
Ceiling:2100 feet AGL
Clouds: broken clouds at 2100 feet AGL, broken clouds at 2700 feet AGL
QC Flag:automated observation with no human augmentation
Text:KHLB 190155Z AUTO VRB04G10KT 10SM BKN023 BKN027 01/00 A3029 RMK A01
Temperature: 1.0°C ( 34°F)
Dewpoint: 0.0°C ( 32°F) [RH = 93%]
Pressure (altimeter):30.29 inches Hg (1025.8 mb)
Winds:variable direction winds at 5 MPH (4 knots; 2.1 m/s) gusting to 12 MPH (10 knots; 5.1 m/s)
Visibility:10 or more sm (16+ km)
Ceiling:2300 feet AGL
Clouds: broken clouds at 2300 feet AGL, broken clouds at 2700 feet AGL
QC Flag:automated observation with no human augmentation
Text:KHLB 190135Z AUTO 00000KT 10SM OVC024 01/00 A3028 RMK A01
Temperature: 1.0°C ( 34°F)
Dewpoint: 0.0°C ( 32°F) [RH = 93%]
Pressure (altimeter):30.28 inches Hg (1025.5 mb)
Winds:calm
Visibility:10 or more sm (16+ km)
Ceiling:2400 feet AGL
Clouds: overcast cloud deck at 2400 feet AGL
QC Flag:automated observation with no human augmentation
Text:KHLB 190115Z AUTO 00000KT 10SM OVC025 02/00 A3027 RMK A01
Temperature: 2.0°C ( 36°F)
Dewpoint: 0.0°C ( 32°F) [RH = 87%]
Pressure (altimeter):30.27 inches Hg (1025.1 mb)
Winds:calm
Visibility:10 or more sm (16+ km)
Ceiling:2500 feet AGL
Clouds: overcast cloud deck at 2500 feet AGL
QC Flag:automated observation with no human augmentation
Text:KHLB 190055Z AUTO 00000KT 10SM BKN024 BKN029 02/00 A3026 RMK A01
Temperature: 2.0°C ( 36°F)
Dewpoint: 0.0°C ( 32°F) [RH = 87%]
Pressure (altimeter):30.26 inches Hg (1024.8 mb)
Winds:calm
Visibility:10 or more sm (16+ km)
Ceiling:2400 feet AGL
Clouds: broken clouds at 2400 feet AGL, broken clouds at 2900 feet AGL
QC Flag:automated observation with no human augmentation
Text:KHLB 190035Z AUTO 32004KT 10SM OVC023 03/00 A3025 RMK A01
Temperature: 3.0°C ( 37°F)
Dewpoint: 0.0°C ( 32°F) [RH = 81%]
Pressure (altimeter):30.25 inches Hg (1024.5 mb)
Winds:from the NW (320 degrees) at 5 MPH (4 knots; 2.1 m/s)
Visibility:10 or more sm (16+ km)
Ceiling:2300 feet AGL
Clouds: overcast cloud deck at 2300 feet AGL
QC Flag:automated observation with no human augmentation
Text:KHLB 190015Z AUTO VRB03KT 10SM OVC021 03/00 A3025 RMK A01
Temperature: 3.0°C ( 37°F)
Dewpoint: 0.0°C ( 32°F) [RH = 81%]
Pressure (altimeter):30.25 inches Hg (1024.5 mb)
Winds:variable direction winds at 3 MPH (3 knots; 1.5 m/s)
Visibility:10 or more sm (16+ km)
Ceiling:2100 feet AGL
Clouds: overcast cloud deck at 2100 feet AGL
QC Flag:automated observation with no human augmentation
Text:KHLB 182355Z AUTO VRB06G11KT 10SM OVC022 04/01 A3024 RMK A01
Temperature: 4.0°C ( 39°F)
Dewpoint: 1.0°C ( 34°F) [RH = 81%]
Pressure (altimeter):30.24 inches Hg (1024.1 mb)
Winds:variable direction winds at 7 MPH (6 knots; 3.1 m/s) gusting to 13 MPH (11 knots; 5.7 m/s)
Visibility:10 or more sm (16+ km)
Ceiling:2200 feet AGL
Clouds: overcast cloud deck at 2200 feet AGL
QC Flag:automated observation with no human augmentation
Text:KHLB 182335Z AUTO 00000KT 10SM SCT025 BKN110 04/01 A3023 RMK A01
Temperature: 4.0°C ( 39°F)
Dewpoint: 1.0°C ( 34°F) [RH = 81%]
Pressure (altimeter):30.23 inches Hg (1023.8 mb)
Winds:calm
Visibility:10 or more sm (16+ km)
Ceiling:11000 feet AGL
Clouds: scattered clouds at 2500 feet AGL, broken clouds at 11000 feet AGL
QC Flag:automated observation with no human augmentation
Text:KHLB 182315Z AUTO VRB04KT 10SM FEW028 SCT110 04/01 A3021 RMK A01
Temperature: 4.0°C ( 39°F)
Dewpoint: 1.0°C ( 34°F) [RH = 81%]
Pressure (altimeter):30.21 inches Hg (1023.1 mb)
Winds:variable direction winds at 5 MPH (4 knots; 2.1 m/s)
Visibility:10 or more sm (16+ km)
Ceiling:at least 12,000 feet AGL
Clouds: few clouds at 2800 feet AGL, scattered clouds at 11000 feet AGL
QC Flag:automated observation with no human augmentation
Text:KHLB 182255Z AUTO 31006KT 10SM BKN024 04/01 A3019 RMK A01
Temperature: 4.0°C ( 39°F)
Dewpoint: 1.0°C ( 34°F) [RH = 81%]
Pressure (altimeter):30.19 inches Hg (1022.4 mb)
Winds:from the NW (310 degrees) at 7 MPH (6 knots; 3.1 m/s)
Visibility:10 or more sm (16+ km)
Ceiling:2400 feet AGL
Clouds: broken clouds at 2400 feet AGL
QC Flag:automated observation with no human augmentation
Text:KHLB 182235Z AUTO VRB05KT 10SM OVC023 04/01 A3017 RMK A01
Temperature: 4.0°C ( 39°F)
Dewpoint: 1.0°C ( 34°F) [RH = 81%]
Pressure (altimeter):30.17 inches Hg (1021.8 mb)
Winds:variable direction winds at 6 MPH (5 knots; 2.6 m/s)
Visibility:10 or more sm (16+ km)
Ceiling:2300 feet AGL
Clouds: overcast cloud deck at 2300 feet AGL
QC Flag:automated observation with no human augmentation
Text:KHLB 182215Z AUTO VRB04KT 10SM BKN021 BKN026 04/01 A3016 RMK A01
Temperature: 4.0°C ( 39°F)
Dewpoint: 1.0°C ( 34°F) [RH = 81%]
Pressure (altimeter):30.16 inches Hg (1021.4 mb)
Winds:variable direction winds at 5 MPH (4 knots; 2.1 m/s)
Visibility:10 or more sm (16+ km)
Ceiling:2100 feet AGL
Clouds: broken clouds at 2100 feet AGL, broken clouds at 2600 feet AGL
QC Flag:automated observation with no human augmentation
Text:KHLB 182155Z AUTO 32004KT 10SM BKN021 04/01 A3015 RMK A01
Temperature: 4.0°C ( 39°F)
Dewpoint: 1.0°C ( 34°F) [RH = 81%]
Pressure (altimeter):30.15 inches Hg (1021.1 mb)
Winds:from the NW (320 degrees) at 5 MPH (4 knots; 2.1 m/s)
Visibility:10 or more sm (16+ km)
Ceiling:2100 feet AGL
Clouds: broken clouds at 2100 feet AGL
QC Flag:automated observation with no human augmentation
Text:KHLB 182135Z AUTO 31006G14KT 10SM BKN022 04/01 A3015 RMK A01
Temperature: 4.0°C ( 39°F)
Dewpoint: 1.0°C ( 34°F) [RH = 81%]
Pressure (altimeter):30.15 inches Hg (1021.1 mb)
Winds:from the NW (310 degrees) at 7 MPH (6 knots; 3.1 m/s) gusting to 16 MPH (14 knots; 7.2 m/s)
Visibility:10 or more sm (16+ km)
Ceiling:2200 feet AGL
Clouds: broken clouds at 2200 feet AGL
QC Flag:automated observation with no human augmentation
Text:KHLB 182115Z AUTO 31009G15KT 10SM SCT021 04/01 A3014 RMK A01
Temperature: 4.0°C ( 39°F)
Dewpoint: 1.0°C ( 34°F) [RH = 81%]
Pressure (altimeter):30.14 inches Hg (1020.7 mb)
Winds:from the NW (310 degrees) at 10 MPH (9 knots; 4.6 m/s) gusting to 17 MPH (15 knots; 7.7 m/s)
Visibility:10 or more sm (16+ km)
Ceiling:at least 12,000 feet AGL
Clouds: scattered clouds at 2100 feet AGL
QC Flag:automated observation with no human augmentation
Text:KHLB 182055Z AUTO VRB05G13KT 10SM SCT021 05/01 A3012 RMK A01
Temperature: 5.0°C ( 41°F)
Dewpoint: 1.0°C ( 34°F) [RH = 75%]
Pressure (altimeter):30.12 inches Hg (1020.1 mb)
Winds:variable direction winds at 6 MPH (5 knots; 2.6 m/s) gusting to 15 MPH (13 knots; 6.7 m/s)
Visibility:10 or more sm (16+ km)
Ceiling:at least 12,000 feet AGL
Clouds: scattered clouds at 2100 feet AGL
QC Flag:automated observation with no human augmentation
Text:KHLB 182035Z AUTO 32008KT 10SM BKN019 05/01 A3012 RMK A01
Temperature: 5.0°C ( 41°F)
Dewpoint: 1.0°C ( 34°F) [RH = 75%]
Pressure (altimeter):30.12 inches Hg (1020.1 mb)
Winds:from the NW (320 degrees) at 9 MPH (8 knots; 4.1 m/s)
Visibility:10 or more sm (16+ km)
Ceiling:1900 feet AGL
Clouds: broken clouds at 1900 feet AGL
QC Flag:automated observation with no human augmentation
Text:KHLB 182015Z AUTO 30007G12KT 280V340 10SM BKN018 OVC022 05/02 A3012 RMK A01
Temperature: 5.0°C ( 41°F)
Dewpoint: 2.0°C ( 36°F) [RH = 81%]
Pressure (altimeter):30.12 inches Hg (1020.1 mb)
Winds:from the WNW (300 degrees) at 8 MPH (7 knots; 3.6 m/s) gusting to 14 MPH (12 knots; 6.2 m/s)
Visibility:10 or more sm (16+ km)
Ceiling:1800 feet AGL
Clouds: broken clouds at 1800 feet AGL, overcast cloud deck at 2200 feet AGL
QC Flag:automated observation with no human augmentation
Text:KHLB 181955Z AUTO VRB06G12KT 10SM OVC017 05/03 A3012 RMK A01
Temperature: 5.0°C ( 41°F)
Dewpoint: 3.0°C ( 37°F) [RH = 87%]
Pressure (altimeter):30.12 inches Hg (1020.1 mb)
Winds:variable direction winds at 7 MPH (6 knots; 3.1 m/s) gusting to 14 MPH (12 knots; 6.2 m/s)
Visibility:10 or more sm (16+ km)
Ceiling:1700 feet AGL
Clouds: overcast cloud deck at 1700 feet AGL
QC Flag:automated observation with no human augmentation
Text:KHLB 181935Z AUTO 33009G17KT 300V020 10SM OVC017 05/02 A3012 RMK A01
Temperature: 5.0°C ( 41°F)
Dewpoint: 2.0°C ( 36°F) [RH = 81%]
Pressure (altimeter):30.12 inches Hg (1020.1 mb)
Winds:from the NNW (330 degrees) at 10 MPH (9 knots; 4.6 m/s) gusting to 20 MPH (17 knots; 8.7 m/s)
Visibility:10 or more sm (16+ km)
Ceiling:1700 feet AGL
Clouds: overcast cloud deck at 1700 feet AGL
QC Flag:automated observation with no human augmentation
Text:KHLB 181915Z AUTO VRB06KT 10SM OVC015 05/03 A3010 RMK A01
Temperature: 5.0°C ( 41°F)
Dewpoint: 3.0°C ( 37°F) [RH = 87%]
Pressure (altimeter):30.10 inches Hg (1019.4 mb)
Winds:variable direction winds at 7 MPH (6 knots; 3.1 m/s)
Visibility:10 or more sm (16+ km)
Ceiling:1500 feet AGL
Clouds: overcast cloud deck at 1500 feet AGL
QC Flag:automated observation with no human augmentation
Text:KHLB 181855Z AUTO VRB04G14KT 9SM OVC014 05/04 A3009 RMK A01
Temperature: 5.0°C ( 41°F)
Dewpoint: 4.0°C ( 39°F) [RH = 93%]
Pressure (altimeter):30.09 inches Hg (1019.0 mb)
Winds:variable direction winds at 5 MPH (4 knots; 2.1 m/s) gusting to 16 MPH (14 knots; 7.2 m/s)
Visibility: 9 sm ( 14 km)
Ceiling:1400 feet AGL
Clouds: overcast cloud deck at 1400 feet AGL
QC Flag:automated observation with no human augmentation
Text:KHLB 181835Z AUTO 31006G12KT 9SM OVC014 05/04 A3009 RMK A01
Temperature: 5.0°C ( 41°F)
Dewpoint: 4.0°C ( 39°F) [RH = 93%]
Pressure (altimeter):30.09 inches Hg (1019.0 mb)
Winds:from the NW (310 degrees) at 7 MPH (6 knots; 3.1 m/s) gusting to 14 MPH (12 knots; 6.2 m/s)
Visibility: 9 sm ( 14 km)
Ceiling:1400 feet AGL
Clouds: overcast cloud deck at 1400 feet AGL
QC Flag:automated observation with no human augmentation
Text:KHLB 181815Z AUTO 33008G14KT 300V010 10SM BKN015 BKN090 06/04 A3009 RMK A01
Temperature: 6.0°C ( 43°F)
Dewpoint: 4.0°C ( 39°F) [RH = 87%]
Pressure (altimeter):30.09 inches Hg (1019.0 mb)
Winds:from the NNW (330 degrees) at 9 MPH (8 knots; 4.1 m/s) gusting to 16 MPH (14 knots; 7.2 m/s)
Visibility:10 or more sm (16+ km)
Ceiling:1500 feet AGL
Clouds: broken clouds at 1500 feet AGL, broken clouds at 9000 feet AGL
QC Flag:automated observation with no human augmentation
Text:KHLB 181755Z AUTO VRB06G14KT 10SM BKN016 BKN095 06/04 A3009 RMK A01
Temperature: 6.0°C ( 43°F)
Dewpoint: 4.0°C ( 39°F) [RH = 87%]
Pressure (altimeter):30.09 inches Hg (1019.0 mb)
Winds:variable direction winds at 7 MPH (6 knots; 3.1 m/s) gusting to 16 MPH (14 knots; 7.2 m/s)
Visibility:10 or more sm (16+ km)
Ceiling:1600 feet AGL
Clouds: broken clouds at 1600 feet AGL, broken clouds at 9500 feet AGL
QC Flag:automated observation with no human augmentation
Text:KHLB 181735Z AUTO 31007G14KT 270V330 10SM BKN017 OVC095 06/04 A3010 RMK A01
Temperature: 6.0°C ( 43°F)
Dewpoint: 4.0°C ( 39°F) [RH = 87%]
Pressure (altimeter):30.10 inches Hg (1019.4 mb)
Winds:from the NW (310 degrees) at 8 MPH (7 knots; 3.6 m/s) gusting to 16 MPH (14 knots; 7.2 m/s)
Visibility:10 or more sm (16+ km)
Ceiling:1700 feet AGL
Clouds: broken clouds at 1700 feet AGL, overcast cloud deck at 9500 feet AGL
QC Flag:automated observation with no human augmentation
Text:KHLB 181715Z AUTO 32009KT 10SM OVC016 06/05 A3010 RMK A01
Temperature: 6.0°C ( 43°F)
Dewpoint: 5.0°C ( 41°F) [RH = 93%]
Pressure (altimeter):30.10 inches Hg (1019.4 mb)
Winds:from the NW (320 degrees) at 10 MPH (9 knots; 4.6 m/s)
Visibility:10 or more sm (16+ km)
Ceiling:1600 feet AGL
Clouds: overcast cloud deck at 1600 feet AGL
QC Flag:automated observation with no human augmentation
Text:KHLB 181655Z AUTO 29008G13KT 240V330 10SM BKN014 BKN018 BKN110 07/06 A3010 RMK A01
Temperature: 7.0°C ( 45°F)
Dewpoint: 6.0°C ( 43°F) [RH = 93%]
Pressure (altimeter):30.10 inches Hg (1019.4 mb)
Winds:from the WNW (290 degrees) at 9 MPH (8 knots; 4.1 m/s) gusting to 15 MPH (13 knots; 6.7 m/s)
Visibility:10 or more sm (16+ km)
Ceiling:1400 feet AGL
Clouds: broken clouds at 1400 feet AGL, broken clouds at 1800 feet AGL, broken clouds at 11000 feet AGL
QC Flag:automated observation with no human augmentation
Text:KHLB 181635Z AUTO 31008KT 10SM SCT014 BKN110 06/06 A3009 RMK A01
Temperature: 6.0°C ( 43°F)
Dewpoint: 6.0°C ( 43°F) [RH = 100%]
Pressure (altimeter):30.09 inches Hg (1019.0 mb)
Winds:from the NW (310 degrees) at 9 MPH (8 knots; 4.1 m/s)
Visibility:10 or more sm (16+ km)
Ceiling:11000 feet AGL
Clouds: scattered clouds at 1400 feet AGL, broken clouds at 11000 feet AGL
QC Flag:automated observation with no human augmentation
Text:KHLB 181615Z AUTO 30010G18KT 10SM BKN013 OVC110 07/07 A3008 RMK A01
Temperature: 7.0°C ( 45°F)
Dewpoint: 7.0°C ( 45°F) [RH = 100%]
Pressure (altimeter):30.08 inches Hg (1018.7 mb)
Winds:from the WNW (300 degrees) at 12 MPH (10 knots; 5.1 m/s) gusting to 21 MPH (18 knots; 9.3 m/s)
Visibility:10 or more sm (16+ km)
Ceiling:1300 feet AGL
Clouds: broken clouds at 1300 feet AGL, overcast cloud deck at 11000 feet AGL
QC Flag:automated observation with no human augmentation
Text:KHLB 181555Z AUTO VRB05G11KT 9SM OVC011 07/07 A3007 RMK A01
Temperature: 7.0°C ( 45°F)
Dewpoint: 7.0°C ( 45°F) [RH = 100%]
Pressure (altimeter):30.07 inches Hg (1018.4 mb)
Winds:variable direction winds at 6 MPH (5 knots; 2.6 m/s) gusting to 13 MPH (11 knots; 5.7 m/s)
Visibility: 9 sm ( 14 km)
Ceiling:1100 feet AGL
Clouds: overcast cloud deck at 1100 feet AGL
QC Flag:automated observation with no human augmentation
Text:KHLB 181535Z AUTO VRB06G12KT 7SM BKN008 OVC013 07/07 A3006 RMK A01
Temperature: 7.0°C ( 45°F)
Dewpoint: 7.0°C ( 45°F) [RH = 100%]
Pressure (altimeter):30.06 inches Hg (1018.0 mb)
Winds:variable direction winds at 7 MPH (6 knots; 3.1 m/s) gusting to 14 MPH (12 knots; 6.2 m/s)
Visibility: 7 sm ( 11 km)
Ceiling:800 feet AGL
Clouds: broken clouds at 800 feet AGL, overcast cloud deck at 1300 feet AGL
QC Flag:automated observation with no human augmentation
Text:KHLB 181515Z AUTO VRB06G13KT 5SM BR OVC007 07/07 A3004 RMK A01
Temperature: 7.0°C ( 45°F)
Dewpoint: 7.0°C ( 45°F) [RH = 100%]
Pressure (altimeter):30.04 inches Hg (1017.4 mb)
Winds:variable direction winds at 7 MPH (6 knots; 3.1 m/s) gusting to 15 MPH (13 knots; 6.7 m/s)
Visibility: 5 sm ( 8 km)
Ceiling:700 feet AGL
Clouds: overcast cloud deck at 700 feet AGL
Weather:BR (mist)
QC Flag:automated observation with no human augmentation
Text:KHLB 181455Z AUTO VRB06G11KT 4SM BR OVC005 07/07 A3004 RMK A01
Temperature: 7.0°C ( 45°F)
Dewpoint: 7.0°C ( 45°F) [RH = 100%]
Pressure (altimeter):30.04 inches Hg (1017.4 mb)
Winds:variable direction winds at 7 MPH (6 knots; 3.1 m/s) gusting to 13 MPH (11 knots; 5.7 m/s)
Visibility: 4 sm ( 6 km)
Ceiling:500 feet AGL
Clouds: overcast cloud deck at 500 feet AGL
Weather:BR (mist)
QC Flag:automated observation with no human augmentation
Text:KHLB 181435Z AUTO 30007KT 2 1/2SM BR OVC004 08/08 A3002 RMK A01
Temperature: 8.0°C ( 46°F)
Dewpoint: 8.0°C ( 46°F) [RH = 100%]
Pressure (altimeter):30.02 inches Hg (1016.7 mb)
Winds:from the WNW (300 degrees) at 8 MPH (7 knots; 3.6 m/s)
Visibility: 2.50 sm ( 4.02 km)
Ceiling:400 feet AGL
Clouds: overcast cloud deck at 400 feet AGL
Weather:BR (mist)
QC Flag:automated observation with no human augmentation
Text:KHLB 181415Z AUTO 29006G11KT 1 1/2SM BR OVC004 09/09 A3001 RMK A01
Temperature: 9.0°C ( 48°F)
Dewpoint: 9.0°C ( 48°F) [RH = 100%]
Pressure (altimeter):30.01 inches Hg (1016.3 mb)
Winds:from the WNW (290 degrees) at 7 MPH (6 knots; 3.1 m/s) gusting to 13 MPH (11 knots; 5.7 m/s)
Visibility: 1.50 sm ( 2.41 km)
Ceiling:400 feet AGL
Clouds: overcast cloud deck at 400 feet AGL
Weather:BR (mist)
QC Flag:automated observation with no human augmentation
Text:KHLB 181355Z AUTO 28009G14KT 4SM BR OVC005 09/09 A3000 RMK A01
Temperature: 9.0°C ( 48°F)
Dewpoint: 9.0°C ( 48°F) [RH = 100%]
Pressure (altimeter):30.00 inches Hg (1016.0 mb)
Winds:from the W (280 degrees) at 10 MPH (9 knots; 4.6 m/s) gusting to 16 MPH (14 knots; 7.2 m/s)
Visibility: 4 sm ( 6 km)
Ceiling:500 feet AGL
Clouds: overcast cloud deck at 500 feet AGL
Weather:BR (mist)
QC Flag:automated observation with no human augmentation
Text:KHLB 181335Z AUTO VRB06KT 6SM BR OVC006 09/09 A2999 RMK A01
Temperature: 9.0°C ( 48°F)
Dewpoint: 9.0°C ( 48°F) [RH = 100%]
Pressure (altimeter):29.99 inches Hg (1015.7 mb)
Winds:variable direction winds at 7 MPH (6 knots; 3.1 m/s)
Visibility: 6 sm ( 10 km)
Ceiling:600 feet AGL
Clouds: overcast cloud deck at 600 feet AGL
Weather:BR (mist)
QC Flag:automated observation with no human augmentation
Text:KHLB 181315Z AUTO 00000KT 7SM BKN006 BKN016 OVC045 09/09 A2997 RMK A01
Temperature: 9.0°C ( 48°F)
Dewpoint: 9.0°C ( 48°F) [RH = 100%]
Pressure (altimeter):29.97 inches Hg (1015.0 mb)
Winds:calm
Visibility: 7 sm ( 11 km)
Ceiling:600 feet AGL
Clouds: broken clouds at 600 feet AGL, broken clouds at 1600 feet AGL, overcast cloud deck at 4500 feet AGL
QC Flag:automated observation with no human augmentation
Text:KHLB 181255Z AUTO VRB05G10KT 7SM BKN004 OVC007 09/09 A2996 RMK A01 P0001
Temperature: 9.0°C ( 48°F)
Dewpoint: 9.0°C ( 48°F) [RH = 100%]
Pressure (altimeter):29.96 inches Hg (1014.6 mb)
Winds:variable direction winds at 6 MPH (5 knots; 2.6 m/s) gusting to 12 MPH (10 knots; 5.1 m/s)
Visibility: 7 sm ( 11 km)
Ceiling:400 feet AGL
Clouds: broken clouds at 400 feet AGL, overcast cloud deck at 700 feet AGL
QC Flag:automated observation with no human augmentation
Text:KHLB 181235Z AUTO 00000KT 4SM BR BKN003 BKN007 OVC013 10/10 A2996 RMK A01
Temperature: 10.0°C ( 50°F)
Dewpoint: 10.0°C ( 50°F) [RH = 100%]
Pressure (altimeter):29.96 inches Hg (1014.6 mb)
Winds:calm
Visibility: 4 sm ( 6 km)
Ceiling:300 feet AGL
Clouds: broken clouds at 300 feet AGL, broken clouds at 700 feet AGL, overcast cloud deck at 1300 feet AGL
Weather:BR (mist)
QC Flag:automated observation with no human augmentation
Text:KHLB 181215Z AUTO VRB04KT 2SM BR BKN003 OVC006 09/09 A2996 RMK A01
Temperature: 9.0°C ( 48°F)
Dewpoint: 9.0°C ( 48°F) [RH = 100%]
Pressure (altimeter):29.96 inches Hg (1014.6 mb)
Winds:variable direction winds at 5 MPH (4 knots; 2.1 m/s)
Visibility: 2.00 sm ( 3.22 km)
Ceiling:300 feet AGL
Clouds: broken clouds at 300 feet AGL, overcast cloud deck at 600 feet AGL
Weather:BR (mist)
QC Flag:automated observation with no human augmentation
Text:KHLB 181155Z AUTO 00000KT 2SM BR OVC003 09/09 A2995 RMK A01 P0001
Temperature: 9.0°C ( 48°F)
Dewpoint: 9.0°C ( 48°F) [RH = 100%]
Pressure (altimeter):29.95 inches Hg (1014.3 mb)
Winds:calm
Visibility: 2.00 sm ( 3.22 km)
Ceiling:300 feet AGL
Clouds: overcast cloud deck at 300 feet AGL
Weather:BR (mist)
QC Flag:automated observation with no human augmentation
Text:KHLB 181135Z AUTO VRB03KT 1 3/4SM BR OVC003 09/09 A2995 RMK A01
Temperature: 9.0°C ( 48°F)
Dewpoint: 9.0°C ( 48°F) [RH = 100%]
Pressure (altimeter):29.95 inches Hg (1014.3 mb)
Winds:variable direction winds at 3 MPH (3 knots; 1.5 m/s)
Visibility: 1.75 sm ( 2.82 km)
Ceiling:300 feet AGL
Clouds: overcast cloud deck at 300 feet AGL
Weather:BR (mist)
QC Flag:automated observation with no human augmentation
Text:KHLB 181115Z AUTO 00000KT 1 3/4SM BR OVC003 10/10 A2994 RMK A01
Temperature: 10.0°C ( 50°F)
Dewpoint: 10.0°C ( 50°F) [RH = 100%]
Pressure (altimeter):29.94 inches Hg (1014.0 mb)
Winds:calm
Visibility: 1.75 sm ( 2.82 km)
Ceiling:300 feet AGL
Clouds: overcast cloud deck at 300 feet AGL
Weather:BR (mist)
QC Flag:automated observation with no human augmentation
Text:KHLB 181055Z AUTO VRB03KT 3SM BR OVC004 10/10 A2994 RMK A01
Temperature: 10.0°C ( 50°F)
Dewpoint: 10.0°C ( 50°F) [RH = 100%]
Pressure (altimeter):29.94 inches Hg (1014.0 mb)
Winds:variable direction winds at 3 MPH (3 knots; 1.5 m/s)
Visibility: 3 sm ( 5 km)
Ceiling:400 feet AGL
Clouds: overcast cloud deck at 400 feet AGL
Weather:BR (mist)
QC Flag:automated observation with no human augmentation
Text:KHLB 181035Z AUTO VRB04G11KT 3SM BR OVC004 10/10 A2993 RMK A01
Temperature: 10.0°C ( 50°F)
Dewpoint: 10.0°C ( 50°F) [RH = 100%]
Pressure (altimeter):29.93 inches Hg (1013.6 mb)
Winds:variable direction winds at 5 MPH (4 knots; 2.1 m/s) gusting to 13 MPH (11 knots; 5.7 m/s)
Visibility: 3 sm ( 5 km)
Ceiling:400 feet AGL
Clouds: overcast cloud deck at 400 feet AGL
Weather:BR (mist)
QC Flag:automated observation with no human augmentation
Text:KHLB 181015Z AUTO VRB04KT 4SM BR OVC005 10/10 A2992 RMK A01
Temperature: 10.0°C ( 50°F)
Dewpoint: 10.0°C ( 50°F) [RH = 100%]
Pressure (altimeter):29.92 inches Hg (1013.3 mb)
Winds:variable direction winds at 5 MPH (4 knots; 2.1 m/s)
Visibility: 4 sm ( 6 km)
Ceiling:500 feet AGL
Clouds: overcast cloud deck at 500 feet AGL
Weather:BR (mist)
QC Flag:automated observation with no human augmentation
Text:KHLB 180955Z AUTO VRB03KT 10SM OVC005 09/09 A2991 RMK A01
Temperature: 9.0°C ( 48°F)
Dewpoint: 9.0°C ( 48°F) [RH = 100%]
Pressure (altimeter):29.91 inches Hg (1013.0 mb)
Winds:variable direction winds at 3 MPH (3 knots; 1.5 m/s)
Visibility:10 or more sm (16+ km)
Ceiling:500 feet AGL
Clouds: overcast cloud deck at 500 feet AGL
QC Flag:automated observation with no human augmentation
Text:KHLB 180935Z AUTO 22006KT 3SM BR OVC005 09/09 A2990 RMK A01
Temperature: 9.0°C ( 48°F)
Dewpoint: 9.0°C ( 48°F) [RH = 100%]
Pressure (altimeter):29.90 inches Hg (1012.6 mb)
Winds:from the SW (220 degrees) at 7 MPH (6 knots; 3.1 m/s)
Visibility: 3 sm ( 5 km)
Ceiling:500 feet AGL
Clouds: overcast cloud deck at 500 feet AGL
Weather:BR (mist)
QC Flag:automated observation with no human augmentation
Text:KHLB 180915Z AUTO VRB04KT 2 1/2SM BR OVC004 09/09 A2990 RMK A01
Temperature: 9.0°C ( 48°F)
Dewpoint: 9.0°C ( 48°F) [RH = 100%]
Pressure (altimeter):29.90 inches Hg (1012.6 mb)
Winds:variable direction winds at 5 MPH (4 knots; 2.1 m/s)
Visibility: 2.50 sm ( 4.02 km)
Ceiling:400 feet AGL
Clouds: overcast cloud deck at 400 feet AGL
Weather:BR (mist)
QC Flag:automated observation with no human augmentation
Text:KHLB 180855Z AUTO VRB06G11KT 2SM BR OVC004 09/09 A2990 RMK A01 P0002
Temperature: 9.0°C ( 48°F)
Dewpoint: 9.0°C ( 48°F) [RH = 100%]
Pressure (altimeter):29.90 inches Hg (1012.6 mb)
Winds:variable direction winds at 7 MPH (6 knots; 3.1 m/s) gusting to 13 MPH (11 knots; 5.7 m/s)
Visibility: 2.00 sm ( 3.22 km)
Ceiling:400 feet AGL
Clouds: overcast cloud deck at 400 feet AGL
Weather:BR (mist)
QC Flag:automated observation with no human augmentation
Text:KHLB 180835Z AUTO VRB04G10KT 3SM BR OVC004 09/09 A2990 RMK A01
Temperature: 9.0°C ( 48°F)
Dewpoint: 9.0°C ( 48°F) [RH = 100%]
Pressure (altimeter):29.90 inches Hg (1012.6 mb)
Winds:variable direction winds at 5 MPH (4 knots; 2.1 m/s) gusting to 12 MPH (10 knots; 5.1 m/s)
Visibility: 3 sm ( 5 km)
Ceiling:400 feet AGL
Clouds: overcast cloud deck at 400 feet AGL
Weather:BR (mist)
QC Flag:automated observation with no human augmentation
Text:KHLB 180815Z AUTO VRB04G11KT 3SM BR OVC005 09/09 A2990 RMK A01
Temperature: 9.0°C ( 48°F)
Dewpoint: 9.0°C ( 48°F) [RH = 100%]
Pressure (altimeter):29.90 inches Hg (1012.6 mb)
Winds:variable direction winds at 5 MPH (4 knots; 2.1 m/s) gusting to 13 MPH (11 knots; 5.7 m/s)
Visibility: 3 sm ( 5 km)
Ceiling:500 feet AGL
Clouds: overcast cloud deck at 500 feet AGL
Weather:BR (mist)
QC Flag:automated observation with no human augmentation
Text:KHLB 180755Z AUTO 20007KT 170V230 2SM BR BKN005 OVC008 09/09 A2990 RMK A01
Temperature: 9.0°C ( 48°F)
Dewpoint: 9.0°C ( 48°F) [RH = 100%]
Pressure (altimeter):29.90 inches Hg (1012.6 mb)
Winds:from the SSW (200 degrees) at 8 MPH (7 knots; 3.6 m/s)
Visibility: 2.00 sm ( 3.22 km)
Ceiling:500 feet AGL
Clouds: broken clouds at 500 feet AGL, overcast cloud deck at 800 feet AGL
Weather:BR (mist)
QC Flag:automated observation with no human augmentation
Text:KHLB 180735Z AUTO VRB05G12KT 2SM BR BKN006 BKN009 OVC016 09/09 A2990 RMK A01
Temperature: 9.0°C ( 48°F)
Dewpoint: 9.0°C ( 48°F) [RH = 100%]
Pressure (altimeter):29.90 inches Hg (1012.6 mb)
Winds:variable direction winds at 6 MPH (5 knots; 2.6 m/s) gusting to 14 MPH (12 knots; 6.2 m/s)
Visibility: 2.00 sm ( 3.22 km)
Ceiling:600 feet AGL
Clouds: broken clouds at 600 feet AGL, broken clouds at 900 feet AGL, overcast cloud deck at 1600 feet AGL
Weather:BR (mist)
QC Flag:automated observation with no human augmentation
Text:KHLB 180715Z AUTO VRB05KT 2SM BR FEW007 OVC018 09/09 A2990 RMK A01
Temperature: 9.0°C ( 48°F)
Dewpoint: 9.0°C ( 48°F) [RH = 100%]
Pressure (altimeter):29.90 inches Hg (1012.6 mb)
Winds:variable direction winds at 6 MPH (5 knots; 2.6 m/s)
Visibility: 2.00 sm ( 3.22 km)
Ceiling:1800 feet AGL
Clouds: few clouds at 700 feet AGL, overcast cloud deck at 1800 feet AGL
Weather:BR (mist)
QC Flag:automated observation with no human augmentation
Text:KHLB 180655Z AUTO VRB05G11KT 4SM BR BKN020 OVC026 09/09 A2990 RMK A01
Temperature: 9.0°C ( 48°F)
Dewpoint: 9.0°C ( 48°F) [RH = 100%]
Pressure (altimeter):29.90 inches Hg (1012.6 mb)
Winds:variable direction winds at 6 MPH (5 knots; 2.6 m/s) gusting to 13 MPH (11 knots; 5.7 m/s)
Visibility: 4 sm ( 6 km)
Ceiling:2000 feet AGL
Clouds: broken clouds at 2000 feet AGL, overcast cloud deck at 2600 feet AGL
Weather:BR (mist)
QC Flag:automated observation with no human augmentation
Text:KHLB 180635Z AUTO VRB06G13KT 2 1/2SM BR BKN023 OVC030 09/09 A2990 RMK A01
Temperature: 9.0°C ( 48°F)
Dewpoint: 9.0°C ( 48°F) [RH = 100%]
Pressure (altimeter):29.90 inches Hg (1012.6 mb)
Winds:variable direction winds at 7 MPH (6 knots; 3.1 m/s) gusting to 15 MPH (13 knots; 6.7 m/s)
Visibility: 2.50 sm ( 4.02 km)
Ceiling:2300 feet AGL
Clouds: broken clouds at 2300 feet AGL, overcast cloud deck at 3000 feet AGL
Weather:BR (mist)
QC Flag:automated observation with no human augmentation
Text:KHLB 180615Z AUTO VRB06KT 6SM HZ BKN027 OVC032 11/07 A2989 RMK A01
Temperature: 11.0°C ( 52°F)
Dewpoint: 7.0°C ( 45°F) [RH = 76%]
Pressure (altimeter):29.89 inches Hg (1012.3 mb)
Winds:variable direction winds at 7 MPH (6 knots; 3.1 m/s)
Visibility: 6 sm ( 10 km)
Ceiling:2700 feet AGL
Clouds: broken clouds at 2700 feet AGL, overcast cloud deck at 3200 feet AGL
Weather:HZ (haze)
QC Flag:automated observation with no human augmentation
Text:KHLB 180555Z AUTO VRB06G14KT 170V250 10SM BKN029 OVC050 12/06 A2988 RMK A01
Temperature: 12.0°C ( 54°F)
Dewpoint: 6.0°C ( 43°F) [RH = 67%]
Pressure (altimeter):29.88 inches Hg (1011.9 mb)
Winds:variable direction winds at 7 MPH (6 knots; 3.1 m/s) gusting to 16 MPH (14 knots; 7.2 m/s)
Visibility:10 or more sm (16+ km)
Ceiling:2900 feet AGL
Clouds: broken clouds at 2900 feet AGL, overcast cloud deck at 5000 feet AGL
QC Flag:automated observation with no human augmentation
Text:KHLB 180535Z AUTO VRB06G14KT 10SM FEW030 OVC050 11/06 A2988 RMK A01
Temperature: 11.0°C ( 52°F)
Dewpoint: 6.0°C ( 43°F) [RH = 71%]
Pressure (altimeter):29.88 inches Hg (1011.9 mb)
Winds:variable direction winds at 7 MPH (6 knots; 3.1 m/s) gusting to 16 MPH (14 knots; 7.2 m/s)
Visibility:10 or more sm (16+ km)
Ceiling:5000 feet AGL
Clouds: few clouds at 3000 feet AGL, overcast cloud deck at 5000 feet AGL
QC Flag:automated observation with no human augmentation
Text:KHLB 180515Z AUTO 20010G15KT 180V240 10SM OVC050 11/05 A2987 RMK A01
Temperature: 11.0°C ( 52°F)
Dewpoint: 5.0°C ( 41°F) [RH = 66%]
Pressure (altimeter):29.87 inches Hg (1011.6 mb)
Winds:from the SSW (200 degrees) at 12 MPH (10 knots; 5.1 m/s) gusting to 17 MPH (15 knots; 7.7 m/s)
Visibility:10 or more sm (16+ km)
Ceiling:5000 feet AGL
Clouds: overcast cloud deck at 5000 feet AGL
QC Flag:automated observation with no human augmentation
Text:KHLB 180455Z AUTO 18007KT 10SM OVC050 09/04 A2986 RMK A01
Temperature: 9.0°C ( 48°F)
Dewpoint: 4.0°C ( 39°F) [RH = 71%]
Pressure (altimeter):29.86 inches Hg (1011.3 mb)
Winds:from the S (180 degrees) at 8 MPH (7 knots; 3.6 m/s)
Visibility:10 or more sm (16+ km)
Ceiling:5000 feet AGL
Clouds: overcast cloud deck at 5000 feet AGL
QC Flag:automated observation with no human augmentation
Text:KHLB 180435Z AUTO 17009KT 10SM OVC055 09/04 A2986 RMK A01
Temperature: 9.0°C ( 48°F)
Dewpoint: 4.0°C ( 39°F) [RH = 71%]
Pressure (altimeter):29.86 inches Hg (1011.3 mb)
Winds:from the S (170 degrees) at 10 MPH (9 knots; 4.6 m/s)
Visibility:10 or more sm (16+ km)
Ceiling:5500 feet AGL
Clouds: overcast cloud deck at 5500 feet AGL
QC Flag:automated observation with no human augmentation
Text:KHLB 180415Z AUTO 18007KT 10SM OVC055 09/04 A2987 RMK A01
Temperature: 9.0°C ( 48°F)
Dewpoint: 4.0°C ( 39°F) [RH = 71%]
Pressure (altimeter):29.87 inches Hg (1011.6 mb)
Winds:from the S (180 degrees) at 8 MPH (7 knots; 3.6 m/s)
Visibility:10 or more sm (16+ km)
Ceiling:5500 feet AGL
Clouds: overcast cloud deck at 5500 feet AGL
QC Flag:automated observation with no human augmentation
Text:KHLB 180355Z AUTO 16008KT 10SM OVC055 09/04 A2987 RMK A01
Temperature: 9.0°C ( 48°F)
Dewpoint: 4.0°C ( 39°F) [RH = 71%]
Pressure (altimeter):29.87 inches Hg (1011.6 mb)
Winds:from the SSE (160 degrees) at 9 MPH (8 knots; 4.1 m/s)
Visibility:10 or more sm (16+ km)
Ceiling:5500 feet AGL
Clouds: overcast cloud deck at 5500 feet AGL
QC Flag:automated observation with no human augmentation
Text:KHLB 180335Z AUTO 15007KT 10SM OVC055 08/04 A2988 RMK A01
Temperature: 8.0°C ( 46°F)
Dewpoint: 4.0°C ( 39°F) [RH = 76%]
Pressure (altimeter):29.88 inches Hg (1011.9 mb)
Winds:from the SSE (150 degrees) at 8 MPH (7 knots; 3.6 m/s)
Visibility:10 or more sm (16+ km)
Ceiling:5500 feet AGL
Clouds: overcast cloud deck at 5500 feet AGL
QC Flag:automated observation with no human augmentation
Text:KHLB 180315Z AUTO 14006KT 10SM OVC055 07/04 A2989 RMK A01
Temperature: 7.0°C ( 45°F)
Dewpoint: 4.0°C ( 39°F) [RH = 81%]
Pressure (altimeter):29.89 inches Hg (1012.3 mb)
Winds:from the SE (140 degrees) at 7 MPH (6 knots; 3.1 m/s)
Visibility:10 or more sm (16+ km)
Ceiling:5500 feet AGL
Clouds: overcast cloud deck at 5500 feet AGL
QC Flag:automated observation with no human augmentation
Text:KHLB 180255Z AUTO 16003KT 10SM OVC055 07/03 A2990 RMK A01
Temperature: 7.0°C ( 45°F)
Dewpoint: 3.0°C ( 37°F) [RH = 76%]
Pressure (altimeter):29.90 inches Hg (1012.6 mb)
Winds:from the SSE (160 degrees) at 3 MPH (3 knots; 1.5 m/s)
Visibility:10 or more sm (16+ km)
Ceiling:5500 feet AGL
Clouds: overcast cloud deck at 5500 feet AGL
QC Flag:automated observation with no human augmentation
Text:KHLB 180235Z AUTO 13004KT 10SM BKN055 BKN065 OVC085 07/03 A2990 RMK A01
Temperature: 7.0°C ( 45°F)
Dewpoint: 3.0°C ( 37°F) [RH = 76%]
Pressure (altimeter):29.90 inches Hg (1012.6 mb)
Winds:from the SE (130 degrees) at 5 MPH (4 knots; 2.1 m/s)
Visibility:10 or more sm (16+ km)
Ceiling:5500 feet AGL
Clouds: broken clouds at 5500 feet AGL, broken clouds at 6500 feet AGL, overcast cloud deck at 8500 feet AGL
QC Flag:automated observation with no human augmentation
Text:KHLB 180215Z AUTO 13005KT 10SM BKN065 BKN075 OVC090 07/03 A2990 RMK A01
Temperature: 7.0°C ( 45°F)
Dewpoint: 3.0°C ( 37°F) [RH = 76%]
Pressure (altimeter):29.90 inches Hg (1012.6 mb)
Winds:from the SE (130 degrees) at 6 MPH (5 knots; 2.6 m/s)
Visibility:10 or more sm (16+ km)
Ceiling:6500 feet AGL
Clouds: broken clouds at 6500 feet AGL, broken clouds at 7500 feet AGL, overcast cloud deck at 9000 feet AGL
QC Flag:automated observation with no human augmentation
Text:KHLB 180155Z AUTO 13005KT 10SM OVC065 07/03 A2991 RMK A01
Temperature: 7.0°C ( 45°F)
Dewpoint: 3.0°C ( 37°F) [RH = 76%]
Pressure (altimeter):29.91 inches Hg (1013.0 mb)
Winds:from the SE (130 degrees) at 6 MPH (5 knots; 2.6 m/s)
Visibility:10 or more sm (16+ km)
Ceiling:6500 feet AGL
Clouds: overcast cloud deck at 6500 feet AGL
QC Flag:automated observation with no human augmentation
Text:KHLB 180135Z AUTO 13006KT 10SM OVC070 07/03 A2992 RMK A01
Temperature: 7.0°C ( 45°F)
Dewpoint: 3.0°C ( 37°F) [RH = 76%]
Pressure (altimeter):29.92 inches Hg (1013.3 mb)
Winds:from the SE (130 degrees) at 7 MPH (6 knots; 3.1 m/s)
Visibility:10 or more sm (16+ km)
Ceiling:7000 feet AGL
Clouds: overcast cloud deck at 7000 feet AGL
QC Flag:automated observation with no human augmentation